Time;durP1;ratioP1;P1;durP2;ratioP2;P2;SDS_P1;SDS_P2;PMS_P1;PMS_P2;Temp;Humidity;BMP_temperature;BMP_pressure;BME280_temperature;BME280_humidity;BME280_pressure;Samples;Min_cycle;Max_cycle;Signal;HPM_P1;HPM_P2
2022/06/22 03:01:25;;;;;;;8.43;6.05;;;11.20;99.90;;;;;;5775604;23;20051;-80
2022/06/22 03:03:59;;;;;;;9.23;6.05;;;11.20;99.90;;;;;;4953980;29;20061;-81
2022/06/22 03:06:40;;;;;;;11.60;6.45;;;11.30;99.90;;;;;;4939943;29;20071;-88
2022/06/22 03:09:12;;;;;;;11.27;6.70;;;11.20;99.90;;;;;;4948858;28;20043;-86
2022/06/22 03:11:42;;;;;;;9.43;6.30;;;11.20;99.90;;;;;;4958302;29;20135;-78
2022/06/22 03:14:35;;;;;;;8.38;5.93;;;11.10;99.90;;;;;;4940914;29;20051;-82
2022/06/22 03:17:12;;;;;;;8.70;5.40;;;11.10;99.90;;;;;;4939421;29;20050;-81
2022/06/22 03:38:40;;;;;;;13.10;9.45;;;10.90;99.90;;;;;;5516741;23;20054;-84
2022/06/22 03:41:11;;;;;;;14.30;10.18;;;10.90;99.90;;;;;;4963292;28;20035;-87
2022/06/22 03:43:48;;;;;;;15.57;10.27;;;10.90;99.90;;;;;;4975494;28;20173;-81
2022/06/22 03:46:30;;;;;;;14.63;8.95;;;10.80;99.90;;;;;;4957953;28;20483;-82
2022/06/22 03:49:08;;;;;;;14.65;9.30;;;10.80;99.90;;;;;;4957360;28;20100;-81
2022/06/22 03:51:44;;;;;;;12.68;8.77;;;10.80;99.90;;;;;;4957609;28;20053;-83
2022/06/22 03:54:23;;;;;;;14.98;10.15;;;10.90;99.90;;;;;;4974473;28;20050;-83
2022/06/22 03:56:57;;;;;;;13.73;9.45;;;10.80;99.90;;;;;;4958314;28;20043;-83
2022/06/22 04:11:48;;;;;;;;;;;;;;;;;;;;;
2022/06/22 04:19:15;;;;;;;;;;;;;;;;;;;;;
2022/06/22 04:34:47;;;;;;;;;;;;;;;;;;;;;
2022/06/22 06:19:50;;;;;;;30.10;17.58;;;13.00;99.90;;;;;;6203448;23;20099;-83
2022/06/22 06:34:56;;;;;;;25.98;16.35;;;13.50;99.90;;;;;;6153191;23;20025;-82
2022/06/22 06:38:41;;;;;;;;;;;;;;;;;;;;;
2022/06/22 06:42:03;;;;;;;23.25;14.52;;;13.60;99.90;;;;;;6098403;23;20017;-82
2022/06/22 06:49:14;;;;;;;;;;;;;;;;;;;;;
2022/06/22 06:53:33;;;;;;;;;;;;;;;;;;;;;
2022/06/22 06:57:13;;;;;;;25.38;14.20;;;14.00;99.90;;;;;;5937203;23;20367;-82
2022/06/22 06:59:45;;;;;;;22.13;13.90;;;14.10;99.90;;;;;;5979971;23;20019;-80
2022/06/22 07:02:32;;;;;;;23.08;13.70;;;14.20;99.90;;;;;;6058199;23;20015;-82
2022/06/22 07:05:00;;;;;;;23.88;13.95;;;14.30;99.90;;;;;;6096832;23;20022;-82
2022/06/22 07:07:43;;;;;;;24.83;13.15;;;14.30;99.90;;;;;;6095961;23;20011;-83
2022/06/22 07:10:19;;;;;;;19.10;11.90;;;14.40;99.90;;;;;;6096537;23;20021;-80
2022/06/22 07:12:57;;;;;;;18.08;11.60;;;14.50;99.90;;;;;;6072520;23;20018;-82
2022/06/22 07:15:30;;;;;;;20.35;11.98;;;14.50;99.90;;;;;;6121626;23;20429;-84
2022/06/22 07:18:00;;;;;;;17.10;10.95;;;14.60;99.90;;;;;;6130202;23;20018;-82
2022/06/22 07:20:32;;;;;;;16.80;9.88;;;14.70;99.90;;;;;;6297746;22;20019;-83
2022/06/22 07:23:03;;;;;;;13.85;8.55;;;14.80;99.90;;;;;;6307565;22;20014;-82
2022/06/22 07:25:46;;;;;;;11.23;8.25;;;14.90;99.90;;;;;;6308244;22;20011;-82
2022/06/22 07:28:27;;;;;;;11.07;7.38;;;14.90;99.90;;;;;;6282321;22;20082;-82
2022/06/22 07:30:58;;;;;;;12.35;7.57;;;15.00;99.90;;;;;;6309460;22;20082;-81
2022/06/22 07:33:33;;;;;;;12.23;6.75;;;15.00;99.90;;;;;;6307438;22;20011;-82
2022/06/22 07:36:13;;;;;;;12.90;7.30;;;15.10;99.90;;;;;;6309037;22;20075;-82
2022/06/22 07:38:51;;;;;;;12.25;6.03;;;15.20;99.90;;;;;;6309253;22;20401;-82
2022/06/22 07:41:19;;;;;;;9.57;5.65;;;15.30;99.90;;;;;;6309518;22;20003;-82
2022/06/22 07:44:04;;;;;;;10.43;5.68;;;15.30;99.90;;;;;;6308926;22;20015;-82
2022/06/22 07:46:32;;;;;;;10.70;4.85;;;15.50;99.90;;;;;;6309829;22;20007;-81
2022/06/22 07:49:07;;;;;;;10.38;4.88;;;15.50;99.90;;;;;;6309409;22;20074;-82
2022/06/22 07:51:37;;;;;;;6.05;3.20;;;15.60;99.90;;;;;;6282887;22;20041;-81
2022/06/22 07:54:08;;;;;;;5.43;3.08;;;15.70;99.90;;;;;;6307476;22;20363;-83
2022/06/22 07:56:41;;;;;;;6.03;2.42;;;15.90;99.90;;;;;;6308987;22;20065;-81
2022/06/22 07:59:12;;;;;;;5.00;2.20;;;16.00;99.90;;;;;;6308143;22;20016;-81
2022/06/22 08:01:41;;;;;;;5.80;2.47;;;16.10;99.90;;;;;;6307618;22;20464;-83
2022/06/22 08:04:21;;;;;;;6.22;2.58;;;16.10;99.90;;;;;;6307466;22;20012;-82
2022/06/22 08:06:55;;;;;;;5.50;2.50;;;16.20;99.90;;;;;;6307578;22;20007;-83
2022/06/22 08:09:30;;;;;;;4.45;2.22;;;16.30;99.90;;;;;;6307439;22;20042;-83
2022/06/22 08:12:20;;;;;;;4.93;1.52;;;16.40;99.90;;;;;;6281529;22;20037;-82
2022/06/22 08:14:49;;;;;;;4.72;2.00;;;16.50;99.90;;;;;;6295136;22;20042;-81
2022/06/22 08:17:39;;;;;;;6.18;2.60;;;16.60;99.90;;;;;;6308677;22;20007;-82
2022/06/22 08:20:11;;;;;;;3.70;2.05;;;16.70;99.90;;;;;;6308008;22;20091;-82
2022/06/22 08:22:36;;;;;;;4.75;1.90;;;16.80;99.90;;;;;;6307339;22;20019;-81
2022/06/22 08:25:06;;;;;;;4.85;2.80;;;17.00;99.90;;;;;;6308484;22;20016;-81
2022/06/22 08:27:32;;;;;;;10.52;3.45;;;17.10;99.90;;;;;;6309460;22;20011;-81
2022/06/22 08:29:58;;;;;;;6.57;3.05;;;17.20;99.90;;;;;;6309244;22;20030;-81
2022/06/22 08:32:34;;;;;;;9.18;2.90;;;17.30;99.90;;;;;;6307050;22;20019;-81
2022/06/22 08:35:24;;;;;;;5.50;3.08;;;17.50;99.90;;;;;;6307311;22;20011;-84
2022/06/22 08:37:59;;;;;;;5.20;2.55;;;17.70;99.90;;;;;;6282007;22;20041;-82
2022/06/22 08:40:50;;;;;;;6.18;2.53;;;17.80;99.90;;;;;;6281068;22;20074;-82
2022/06/22 08:43:25;;;;;;;6.55;3.03;;;17.90;99.90;;;;;;6281538;22;20038;-82
2022/06/22 08:46:03;;;;;;;7.80;2.50;;;18.00;99.90;;;;;;6309241;22;20134;-81
2022/06/22 08:48:48;;;;;;;7.88;2.55;;;18.10;99.90;;;;;;6307141;22;20361;-84
2022/06/22 08:51:39;;;;;;;6.28;2.72;;;18.20;99.90;;;;;;6281309;22;20086;-81
2022/06/22 08:54:41;;;;;;;5.10;2.35;;;18.30;99.90;;;;;;6308615;22;20039;-83
2022/06/22 08:57:29;;;;;;;8.73;3.50;;;18.40;99.90;;;;;;6307043;22;20064;-81
2022/06/22 09:00:16;;;;;;;6.38;3.05;;;18.50;99.90;;;;;;6308754;22;20018;-83
2022/06/22 09:03:18;;;;;;;7.78;3.00;;;18.70;99.90;;;;;;6307070;22;20095;-82
2022/06/22 09:06:08;;;;;;;7.75;3.83;;;18.80;99.90;;;;;;6281794;22;20014;-84
2022/06/22 09:09:02;;;;;;;7.22;3.42;;;18.90;99.90;;;;;;6307555;22;20018;-82
2022/06/22 09:11:55;;;;;;;9.18;3.13;;;19.00;99.90;;;;;;6281544;22;20046;-83
2022/06/22 09:14:52;;;;;;;8.18;3.58;;;19.10;99.90;;;;;;6281758;22;20363;-82
2022/06/22 09:17:55;;;;;;;9.57;3.90;;;19.20;99.90;;;;;;6307155;22;20007;-83
2022/06/22 09:20:53;;;;;;;11.93;4.22;;;19.30;99.90;;;;;;6281135;22;20020;-83
2022/06/22 09:23:28;;;;;;;9.13;3.60;;;19.60;99.90;;;;;;6281332;22;20045;-82
2022/06/22 09:26:20;;;;;;;8.77;4.03;;;19.60;99.90;;;;;;6309229;22;20039;-82
2022/06/22 09:29:11;;;;;;;8.98;3.13;;;19.80;99.90;;;;;;6307580;22;20057;-83
2022/06/22 09:32:15;;;;;;;6.22;3.15;;;19.90;99.90;;;;;;6307069;22;20008;-85
2022/06/22 09:34:41;;;;;;;6.57;2.85;;;20.00;99.90;;;;;;6308899;22;20011;-83
2022/06/22 09:37:34;;;;;;;9.38;2.80;;;20.20;99.90;;;;;;6282796;22;20022;-84
2022/06/22 09:40:31;;;;;;;6.38;2.80;;;20.40;99.90;;;;;;6282037;22;20024;-82
2022/06/22 09:43:19;;;;;;;6.72;2.63;;;20.40;99.90;;;;;;6281192;22;20053;-82
2022/06/22 09:45:52;;;;;;;5.78;2.70;;;20.60;99.90;;;;;;6308888;22;20057;-83
2022/06/22 09:48:42;;;;;;;6.32;2.20;;;20.80;99.90;;;;;;6307098;22;20014;-83
2022/06/22 09:51:19;;;;;;;6.18;2.35;;;20.90;99.90;;;;;;6306965;22;20015;-83
2022/06/22 09:57:12;;;;;;;4.57;2.05;;;21.10;99.90;;;;;;6308527;22;20345;-83
2022/06/22 09:59:59;;;;;;;5.95;2.33;;;21.10;99.90;;;;;;6306510;22;20015;-83
2022/06/22 10:02:56;;;;;;;5.65;2.13;;;21.10;99.90;;;;;;6308354;22;20041;-82
2022/06/22 10:05:44;;;;;;;6.90;1.98;;;21.20;99.90;;;;;;6306790;22;20528;-83
2022/06/22 10:08:28;;;;;;;9.18;2.15;;;21.20;99.90;;;;;;6308821;22;20016;-82
2022/06/22 10:11:03;;;;;;;4.20;1.90;;;21.40;99.90;;;;;;6283298;22;20017;-82
2022/06/22 10:13:39;;;;;;;;;;;21.50;99.90;;;;;;6311253;22;20011;-82
2022/06/22 10:16:30;;;;;;;5.60;2.40;;;21.60;99.90;;;;;;6309475;22;19914;-81
2022/06/22 10:19:36;;;;;;;6.53;3.10;;;21.70;99.90;;;;;;6282494;22;20022;-83
2022/06/22 10:22:25;;;;;;;8.48;3.25;;;21.70;99.90;;;;;;6308989;22;20494;-83
2022/06/22 10:25:10;;;;;;;3.90;2.25;;;21.80;99.90;;;;;;6309573;22;20014;-84
2022/06/22 10:28:01;;;;;;;4.45;1.20;;;21.90;99.90;;;;;;6283205;22;20429;-83
2022/06/22 10:30:48;;;;;;;4.90;1.85;;;22.00;99.90;;;;;;6309160;22;20023;-83
2022/06/22 10:33:30;;;;;;;7.22;2.30;;;22.20;99.90;;;;;;6308965;22;20429;-82
2022/06/22 10:36:14;;;;;;;4.07;2.50;;;22.20;99.90;;;;;;6283184;22;20015;-83
2022/06/22 10:38:46;;;;;;;4.95;2.25;;;22.30;99.90;;;;;;6310820;22;20096;-84
2022/06/22 10:46:56;;;;;;;4.72;1.50;;;22.60;99.90;;;;;;6308962;22;20046;-83
2022/06/22 10:49:39;;;;;;;3.20;1.15;;;22.80;99.90;;;;;;6310680;22;20027;-83
2022/06/22 10:52:13;;;;;;;4.95;1.70;;;22.90;98.90;;;;;;6308705;22;20492;-81
2022/06/22 10:54:56;;;;;;;4.55;1.70;;;23.10;99.20;;;;;;6308988;22;20014;-81
2022/06/22 10:57:41;;;;;;;3.53;1.70;;;23.10;98.40;;;;;;6309115;22;20090;-85
2022/06/22 11:00:20;;;;;;;6.07;1.73;;;23.20;98.40;;;;;;6310041;22;20015;-85
2022/06/22 11:02:55;;;;;;;4.47;2.13;;;23.30;99.90;;;;;;6309024;22;20007;-82
2022/06/22 11:05:35;;;;;;;6.05;2.22;;;23.20;96.60;;;;;;6308748;22;20011;-83
2022/06/22 11:08:37;;;;;;;3.67;1.70;;;23.10;97.60;;;;;;6310641;22;20014;-83
2022/06/22 11:11:24;;;;;;;5.35;2.00;;;23.10;99.30;;;;;;6308937;22;20012;-84
2022/06/22 11:14:22;;;;;;;5.45;1.85;;;23.30;99.00;;;;;;6283806;22;20003;-85
2022/06/22 11:17:03;;;;;;;3.65;1.88;;;23.50;99.00;;;;;;6307390;22;20011;-86
2022/06/22 11:19:58;;;;;;;4.10;2.00;;;23.50;96.70;;;;;;6308776;22;20019;-81
2022/06/22 11:22:36;;;;;;;5.35;2.55;;;23.60;99.90;;;;;;6308986;22;20019;-83
2022/06/22 11:31:14;;;;;;;6.10;2.35;;;24.00;99.10;;;;;;6309743;22;20026;-85
2022/06/22 11:34:19;;;;;;;7.20;2.67;;;24.10;99.90;;;;;;6310749;22;20011;-82
2022/06/22 11:36:59;;;;;;;7.45;2.70;;;24.30;99.90;;;;;;6310881;22;20014;-83
2022/06/22 11:39:28;;;;;;;5.63;2.63;;;24.40;98.80;;;;;;6310528;22;20011;-83
2022/06/22 11:42:02;;;;;;;8.63;2.80;;;24.40;96.90;;;;;;6282822;22;20015;-85
2022/06/22 11:44:43;;;;;;;6.55;2.50;;;24.30;97.50;;;;;;6308887;22;20086;-83
2022/06/22 11:47:19;;;;;;;5.78;2.13;;;24.30;97.90;;;;;;6310338;22;20011;-83
2022/06/22 11:50:20;;;;;;;8.13;2.60;;;24.30;98.70;;;;;;6309554;22;20050;-82
2022/06/22 11:53:15;;;;;;;5.88;2.70;;;24.40;99.90;;;;;;6282752;22;20437;-84
2022/06/22 11:55:56;;;;;;;4.47;2.20;;;24.50;98.00;;;;;;6257384;22;20084;-85
2022/06/22 11:58:48;;;;;;;4.55;2.33;;;24.60;99.30;;;;;;6257759;22;20161;-85
2022/06/22 12:01:16;;;;;;;8.45;2.85;;;24.70;99.10;;;;;;6310822;22;20007;-83
2022/06/22 12:04:05;;;;;;;5.75;2.72;;;24.80;98.20;;;;;;6283356;22;20015;-84
2022/06/22 12:06:42;;;;;;;7.28;2.15;;;24.80;98.10;;;;;;6313931;22;20011;-83
2022/06/22 12:09:39;;;;;;;6.15;3.05;;;25.00;99.80;;;;;;6287491;22;20015;-83
2022/06/22 12:12:46;;;;;;;4.22;1.90;;;25.10;97.70;;;;;;6257953;22;20023;-83
2022/06/22 12:15:36;;;;;;;4.20;2.17;;;25.20;98.90;;;;;;6319564;22;20022;-80
2022/06/22 12:18:11;;;;;;;6.85;2.70;;;25.30;98.30;;;;;;6298387;22;20046;-77
2022/06/22 12:21:12;;;;;;;6.13;2.22;;;25.20;97.10;;;;;;6328726;22;20041;-81
2022/06/22 12:23:51;;;;;;;5.95;2.30;;;25.20;97.90;;;;;;6317960;22;20509;-86
2022/06/22 12:26:28;;;;;;;4.88;1.90;;;25.20;97.30;;;;;;6283417;22;20011;-84
2022/06/22 12:29:31;;;;;;;6.18;2.00;;;25.50;97.50;;;;;;6283053;22;20014;-85
2022/06/22 12:32:21;;;;;;;6.25;2.58;;;25.50;98.80;;;;;;6283290;22;20432;-83
2022/06/22 12:35:27;;;;;;;6.30;2.33;;;25.60;96.70;;;;;;6277257;22;20101;-83
2022/06/22 12:37:59;;;;;;;6.60;2.50;;;25.70;95.20;;;;;;6262493;22;20042;-81
2022/06/22 12:40:27;;;;;;;4.53;2.33;;;25.70;94.40;;;;;;6282835;22;20011;-83
2022/06/22 12:42:59;;;;;;;4.50;1.80;;;25.50;94.20;;;;;;6310491;22;20441;-83
2022/06/22 12:45:37;;;;;;;5.60;2.10;;;25.60;94.80;;;;;;6282530;22;20021;-83
2022/06/22 12:48:12;;;;;;;4.60;1.95;;;25.70;94.30;;;;;;6281968;22;20098;-85
2022/06/22 12:51:18;;;;;;;10.10;2.55;;;25.80;93.80;;;;;;6292792;22;20022;-83
2022/06/22 12:53:48;;;;;;;;;;;25.90;93.40;;;;;;6226633;22;20019;-85
2022/06/22 12:56:31;;;;;;;6.25;2.58;;;26.00;93.60;;;;;;6282696;22;19933;-82
2022/06/22 12:59:11;;;;;;;5.13;2.25;;;25.90;90.90;;;;;;6309320;22;20022;-83
2022/06/22 13:01:38;;;;;;;4.93;1.83;;;26.00;90.00;;;;;;6309954;22;20007;-85
2022/06/22 13:04:19;;;;;;;5.68;1.98;;;26.00;88.30;;;;;;6307837;22;20014;-83
2022/06/22 13:06:55;;;;;;;6.53;2.22;;;25.90;86.60;;;;;;6310355;22;20007;-84
2022/06/22 13:09:21;;;;;;;7.38;2.10;;;25.90;87.10;;;;;;6308093;22;20018;-83
2022/06/22 13:11:49;;;;;;;5.53;2.00;;;26.00;85.10;;;;;;6310256;22;20050;-84
2022/06/22 13:14:39;;;;;;;4.78;1.80;;;26.00;81.80;;;;;;6308468;22;20015;-83
2022/06/22 13:17:16;;;;;;;5.80;2.17;;;26.00;82.40;;;;;;6309971;22;20011;-82
2022/06/22 13:20:12;;;;;;;4.32;1.63;;;26.00;82.50;;;;;;6308426;22;20023;-85
2022/06/22 13:23:11;;;;;;;4.93;1.50;;;26.10;85.60;;;;;;6309475;22;20447;-84
2022/06/22 13:25:40;;;;;;;3.38;1.65;;;26.20;80.00;;;;;;6310675;22;20050;-83
2022/06/22 13:28:26;;;;;;;3.85;1.70;;;26.30;80.90;;;;;;6307813;22;20043;-82
2022/06/22 13:30:58;;;;;;;5.03;1.67;;;26.40;79.50;;;;;;6310055;22;20014;-86
2022/06/22 13:34:02;;;;;;;6.70;1.90;;;26.50;78.90;;;;;;6308299;22;20073;-86
2022/06/22 13:36:56;;;;;;;4.93;2.00;;;26.40;77.50;;;;;;6232684;22;20099;-82
2022/06/22 13:39:39;;;;;;;5.72;2.20;;;26.40;80.40;;;;;;6308489;22;20416;-85
2022/06/22 13:42:28;;;;;;;11.75;3.10;;;26.50;81.30;;;;;;6311470;22;20456;-83
2022/06/22 13:44:59;;;;;;;5.32;2.33;;;26.60;83.40;;;;;;6312344;22;20007;-85
2022/06/22 13:47:44;;;;;;;10.77;2.65;;;26.60;82.40;;;;;;6309666;22;20384;-83
2022/06/22 13:50:39;;;;;;;6.53;2.00;;;26.60;83.70;;;;;;6311604;22;20345;-83
2022/06/22 13:53:32;;;;;;;5.82;2.00;;;26.50;84.70;;;;;;6283852;22;20043;-83
2022/06/22 13:56:34;;;;;;;5.38;2.10;;;26.40;84.90;;;;;;6311569;22;20015;-82
2022/06/22 13:59:08;;;;;;;5.85;2.05;;;26.50;88.90;;;;;;6241029;22;20453;-84
2022/06/22 14:01:43;;;;;;;4.90;2.10;;;26.70;86.90;;;;;;6283917;22;20144;-85
2022/06/22 14:04:16;;;;;;;7.10;1.90;;;26.80;86.90;;;;;;6312373;22;20226;-81
2022/06/22 14:07:12;;;;;;;5.72;1.95;;;26.90;85.90;;;;;;6311783;22;20337;-83
2022/06/22 14:09:48;;;;;;;5.50;1.90;;;26.90;84.60;;;;;;6283791;22;20019;-82
2022/06/22 14:12:18;;;;;;;5.07;2.08;;;26.90;87.50;;;;;;6311166;22;20380;-83
2022/06/22 14:15:20;;;;;;;5.22;2.53;;;26.90;87.80;;;;;;6283969;22;20015;-84
2022/06/22 14:17:56;;;;;;;4.35;2.40;;;26.80;87.70;;;;;;6284829;22;20090;-83
2022/06/22 14:20:47;;;;;;;5.63;2.10;;;26.80;87.90;;;;;;6258106;22;20045;-84
2022/06/22 14:23:19;;;;;;;6.22;2.72;;;26.90;89.80;;;;;;6283467;22;20019;-83
2022/06/22 14:26:20;;;;;;;8.15;2.50;;;26.90;88.30;;;;;;6311443;22;20059;-85
2022/06/22 14:29:05;;;;;;;4.85;2.05;;;26.80;89.40;;;;;;6283917;22;20008;-86
2022/06/22 14:31:51;;;;;;;5.40;2.40;;;26.90;90.30;;;;;;6284042;22;20015;-83
2022/06/22 14:34:50;;;;;;;7.22;2.90;;;27.00;90.40;;;;;;6284057;22;20430;-81
2022/06/22 14:37:21;;;;;;;8.90;2.47;;;26.90;87.30;;;;;;6311488;22;20041;-83
2022/06/22 14:39:55;;;;;;;6.80;2.35;;;26.90;87.20;;;;;;6283499;22;20011;-85
2022/06/22 14:42:29;;;;;;;6.40;2.40;;;27.00;88.80;;;;;;6311523;22;20084;-84
2022/06/22 14:45:16;;;;;;;7.97;2.28;;;26.80;88.00;;;;;;6284199;22;20011;-84
2022/06/22 14:48:01;;;;;;;5.88;2.33;;;26.80;88.60;;;;;;6310216;22;20490;-84
2022/06/22 14:50:38;;;;;;;6.85;2.60;;;26.90;90.40;;;;;;6266526;22;20015;-83
2022/06/22 14:53:03;;;;;;;7.32;3.13;;;27.00;91.10;;;;;;6309655;22;20019;-83
2022/06/22 14:55:56;;;;;;;5.47;2.67;;;27.00;89.00;;;;;;6310411;22;20011;-85
2022/06/22 14:58:35;;;;;;;5.50;2.78;;;26.80;88.10;;;;;;6300227;22;20027;-83
2022/06/22 15:01:15;;;;;;;6.55;2.80;;;26.60;88.20;;;;;;6311224;22;20008;-84
2022/06/22 15:03:56;;;;;;;7.22;3.00;;;26.80;91.40;;;;;;6309987;22;20078;-83
2022/06/22 15:06:22;;;;;;;6.53;3.38;;;26.90;92.20;;;;;;6311529;22;20011;-82
2022/06/22 15:08:56;;;;;;;8.07;2.90;;;27.00;91.60;;;;;;6312106;22;20094;-86
2022/06/22 15:14:51;;;;;;;10.32;3.58;;;27.00;92.40;;;;;;6314732;22;20024;-85
2022/06/22 15:17:33;;;;;;;7.55;2.70;;;27.10;92.50;;;;;;6312860;22;20011;-88
2022/06/22 15:20:24;;;;;;;6.93;3.42;;;27.10;93.20;;;;;;6314887;22;20014;-84
2022/06/22 15:23:17;;;;;;;7.28;3.30;;;27.00;93.30;;;;;;6313933;22;20426;-85
2022/06/22 15:25:45;;;;;;;9.15;2.85;;;26.90;93.60;;;;;;6314914;22;20053;-85
2022/06/22 15:28:38;;;;;;;6.70;3.35;;;26.80;94.20;;;;;;6315324;22;20011;-87
2022/06/22 15:31:33;;;;;;;9.70;3.60;;;26.80;95.40;;;;;;6292117;22;20015;-86
2022/06/22 15:34:24;;;;;;;8.27;3.15;;;26.70;95.70;;;;;;6306507;22;20074;-87
2022/06/22 15:37:11;;;;;;;7.13;3.40;;;26.80;93.60;;;;;;6316433;22;20010;-85
2022/06/22 15:39:47;;;;;;;11.20;3.40;;;26.90;97.60;;;;;;6313683;22;20034;-85
2022/06/22 15:42:27;;;;;;;10.45;3.50;;;26.80;96.40;;;;;;6314553;22;20018;-85
2022/06/22 15:45:12;;;;;;;7.35;3.10;;;26.80;95.70;;;;;;6313749;22;20341;-86
2022/06/22 15:47:53;;;;;;;7.00;2.90;;;26.80;96.10;;;;;;6312461;22;20019;-87
2022/06/22 15:50:29;;;;;;;9.93;4.07;;;26.90;97.50;;;;;;6312165;22;20007;-86
2022/06/22 15:53:22;;;;;;;10.07;3.85;;;26.90;98.70;;;;;;6313352;22;20012;-86
2022/06/22 15:55:52;;;;;;;10.30;4.50;;;26.80;99.90;;;;;;6313885;22;20413;-86
2022/06/22 15:58:28;;;;;;;10.43;4.60;;;26.80;99.90;;;;;;6313952;22;20017;-85
2022/06/22 16:01:09;;;;;;;12.23;4.88;;;26.70;99.90;;;;;;6310708;22;20066;-86
2022/06/22 16:03:51;;;;;;;9.43;4.22;;;26.60;99.90;;;;;;6310760;22;20007;-86
2022/06/22 16:06:42;;;;;;;8.80;4.25;;;26.50;99.90;;;;;;6311289;22;20007;-84
2022/06/22 16:09:13;;;;;;;18.10;4.32;;;26.30;99.90;;;;;;6310267;22;20011;-85
2022/06/22 16:14:39;;;;;;;9.98;4.20;;;26.30;99.90;;;;;;6310905;22;20019;-84
2022/06/22 16:17:11;;;;;;;9.25;3.83;;;26.30;99.90;;;;;;6285114;22;20015;-86
2022/06/22 16:20:20;;;;;;;10.80;4.88;;;26.30;99.90;;;;;;6285350;22;20086;-86
2022/06/22 16:22:58;;;;;;;12.55;4.60;;;26.30;99.90;;;;;;6313945;22;20325;-85
2022/06/22 16:25:25;;;;;;;9.57;4.45;;;26.20;99.90;;;;;;6312870;22;20015;-86
2022/06/22 16:28:01;;;;;;;12.07;4.75;;;26.20;99.90;;;;;;6311344;22;20007;-86
2022/06/22 16:30:47;;;;;;;11.90;4.32;;;26.10;99.90;;;;;;6312795;22;20011;-86
2022/06/22 16:33:48;;;;;;;10.20;4.70;;;26.20;99.90;;;;;;6312158;22;20019;-86
2022/06/22 16:36:42;;;;;;;13.52;4.85;;;26.10;99.90;;;;;;6312589;22;20011;-86
2022/06/22 16:39:37;;;;;;;9.63;4.68;;;26.00;99.90;;;;;;6312063;22;20015;-84
2022/06/22 16:42:40;;;;;;;11.13;4.60;;;25.90;99.90;;;;;;6309957;22;20049;-85
2022/06/22 16:45:24;;;;;;;11.25;4.50;;;25.80;99.90;;;;;;6311051;22;20008;-85
2022/06/22 16:47:58;;;;;;;11.57;4.75;;;25.70;99.90;;;;;;6310658;22;20429;-83
2022/06/22 16:50:45;;;;;;;10.38;4.57;;;25.50;99.90;;;;;;6311336;22;20011;-84
2022/06/22 16:53:20;;;;;;;11.80;4.45;;;25.30;99.90;;;;;;6282960;22;20017;-85
2022/06/22 16:55:46;;;;;;;11.95;4.35;;;25.20;99.90;;;;;;6282920;22;20105;-83
2022/06/22 16:58:23;;;;;;;12.15;4.68;;;25.30;99.90;;;;;;6309964;22;20337;-85
2022/06/22 17:01:09;;;;;;;10.00;5.10;;;25.30;99.90;;;;;;6310100;22;20019;-85
2022/06/22 17:04:03;;;;;;;10.50;4.85;;;25.20;99.90;;;;;;6310371;22;20057;-84
2022/06/22 17:07:17;;;;;;;10.35;4.30;;;25.00;99.90;;;;;;6256810;22;20459;-85
2022/06/22 17:09:54;;;;;;;12.38;4.30;;;24.80;99.90;;;;;;6261469;22;20011;-83
2022/06/22 17:12:24;;;;;;;12.05;4.90;;;24.70;99.90;;;;;;6282749;22;20057;-84
2022/06/22 17:14:55;;;;;;;10.45;4.53;;;24.70;99.90;;;;;;6282055;22;20018;-84
2022/06/22 17:17:51;;;;;;;10.73;5.22;;;24.70;99.90;;;;;;6282180;22;20011;-84
2022/06/22 17:20:28;;;;;;;9.00;4.38;;;24.70;99.90;;;;;;6309902;22;20078;-85
2022/06/22 17:23:18;;;;;;;8.05;4.25;;;24.60;99.90;;;;;;6282980;22;20004;-85
2022/06/22 17:25:57;;;;;;;7.88;4.22;;;24.50;99.90;;;;;;6309703;22;20039;-83
2022/06/22 17:28:37;;;;;;;9.32;3.97;;;24.50;99.90;;;;;;6310400;22;20059;-86
2022/06/22 17:31:21;;;;;;;7.60;4.45;;;24.50;99.90;;;;;;6281710;22;20023;-84
2022/06/22 17:34:03;;;;;;;13.17;4.93;;;24.50;99.90;;;;;;6310473;22;20034;-85
2022/06/22 17:36:47;;;;;;;11.65;4.00;;;24.30;99.90;;;;;;6310159;22;20011;-84
2022/06/22 17:39:37;;;;;;;10.55;4.35;;;24.30;99.90;;;;;;6257395;22;20395;-85
2022/06/22 17:42:15;;;;;;;10.57;4.20;;;24.20;99.90;;;;;;6282769;22;20033;-84
2022/06/22 17:44:59;;;;;;;13.00;4.20;;;24.20;99.90;;;;;;6282929;22;20015;-85
2022/06/22 17:47:32;;;;;;;13.68;4.50;;;24.00;99.90;;;;;;6256565;22;20011;-83
2022/06/22 17:50:26;;;;;;;11.02;4.15;;;23.90;99.90;;;;;;6283801;22;20015;-85
2022/06/22 17:52:58;;;;;;;10.13;4.03;;;23.90;99.90;;;;;;6309493;22;20015;-85
2022/06/22 17:55:31;;;;;;;9.38;3.80;;;23.80;99.90;;;;;;6310336;22;20064;-84
2022/06/22 17:58:01;;;;;;;13.95;3.75;;;23.70;99.90;;;;;;6308088;22;20022;-85
2022/06/22 18:00:40;;;;;;;9.95;3.67;;;23.60;99.90;;;;;;6281809;22;20081;-84
2022/06/22 18:03:32;;;;;;;8.68;3.67;;;23.60;99.90;;;;;;6310159;22;20054;-84
2022/06/22 18:06:14;;;;;;;7.30;3.58;;;23.50;99.90;;;;;;6309214;22;20437;-83
2022/06/22 18:08:40;;;;;;;7.78;3.20;;;23.40;99.90;;;;;;6257263;22;20088;-83
2022/06/22 18:11:08;;;;;;;7.07;3.40;;;23.40;99.90;;;;;;6307687;22;20449;-81
2022/06/22 18:13:39;;;;;;;8.60;3.42;;;23.30;99.90;;;;;;6306809;22;20071;-86
2022/06/22 18:16:07;;;;;;;10.77;3.47;;;23.20;99.90;;;;;;6308992;22;20061;-85
2022/06/22 18:18:44;;;;;;;10.77;3.70;;;23.10;99.90;;;;;;6308142;22;20043;-85
2022/06/22 18:21:23;;;;;;;7.80;3.17;;;23.00;99.90;;;;;;6307508;22;20007;-85
2022/06/22 18:23:58;;;;;;;9.43;3.65;;;22.80;99.90;;;;;;6308624;22;20058;-85
2022/06/22 18:26:26;;;;;;;11.50;4.07;;;22.80;99.90;;;;;;6307021;22;20003;-85
2022/06/22 18:29:06;;;;;;;9.48;3.30;;;22.60;99.90;;;;;;6309447;22;20313;-83
2022/06/22 18:31:54;;;;;;;8.20;3.47;;;22.50;99.90;;;;;;6309162;22;20405;-85
2022/06/22 18:34:57;;;;;;;7.90;3.30;;;22.50;99.90;;;;;;6309469;22;20015;-83
2022/06/22 18:37:34;;;;;;;10.55;3.33;;;22.30;99.90;;;;;;6308954;22;20026;-83
2022/06/22 18:43:10;;;;;;;7.53;3.40;;;22.00;99.90;;;;;;6309393;22;20433;-83
2022/06/22 18:46:00;;;;;;;11.98;3.50;;;22.00;99.90;;;;;;6311980;22;20129;-85
2022/06/22 18:48:34;;;;;;;9.40;3.03;;;21.80;99.90;;;;;;6283145;22;20473;-82
2022/06/22 18:51:27;;;;;;;7.47;3.22;;;21.60;99.90;;;;;;6308559;22;20015;-82
2022/06/22 18:54:20;;;;;;;6.03;3.42;;;21.50;99.90;;;;;;6309961;22;20026;-85
2022/06/22 18:56:58;;;;;;;7.07;2.80;;;21.40;99.90;;;;;;6309337;22;20376;-86
2022/06/22 18:59:42;;;;;;;9.05;2.90;;;21.30;99.90;;;;;;6309613;22;20020;-84
2022/06/22 19:02:18;;;;;;;9.35;2.88;;;21.10;99.90;;;;;;6310991;22;20007;-83
2022/06/22 19:05:12;;;;;;;7.07;2.90;;;21.00;99.90;;;;;;6309363;22;20058;-86
2022/06/22 19:07:46;;;;;;;6.90;2.95;;;20.90;99.90;;;;;;6308165;22;20091;-84
2022/06/22 19:10:27;;;;;;;7.25;2.92;;;20.80;99.90;;;;;;6282177;22;20041;-84
2022/06/22 19:13:02;;;;;;;4.97;2.67;;;20.70;99.90;;;;;;6311074;22;20088;-81
2022/06/22 19:15:45;;;;;;;6.38;2.60;;;20.70;99.90;;;;;;6311480;22;20036;-80
2022/06/22 19:18:37;;;;;;;6.68;2.75;;;20.60;99.90;;;;;;6311794;22;20012;-84
2022/06/22 19:21:11;;;;;;;9.60;3.05;;;20.50;99.90;;;;;;6308367;22;20015;-83
2022/06/22 19:24:17;;;;;;;5.97;2.65;;;20.40;99.90;;;;;;6309313;22;20019;-84
2022/06/22 19:26:59;;;;;;;9.75;2.75;;;20.20;99.90;;;;;;6310859;22;20108;-86
2022/06/22 19:29:31;;;;;;;8.38;2.67;;;20.10;99.90;;;;;;6308602;22;20341;-84
2022/06/22 19:32:24;;;;;;;8.55;3.20;;;20.00;99.90;;;;;;6308313;22;20019;-85
2022/06/22 19:35:06;;;;;;;7.68;3.97;;;19.90;99.90;;;;;;6308532;22;20015;-83
2022/06/22 19:37:43;;;;;;;9.00;3.50;;;19.90;99.90;;;;;;6310113;22;20011;-87
2022/06/22 19:40:23;;;;;;;9.63;3.45;;;19.80;99.90;;;;;;6308870;22;20015;-83
2022/06/22 19:43:07;;;;;;;5.30;3.33;;;19.60;99.90;;;;;;6309777;22;20011;-81
2022/06/22 19:45:46;;;;;;;9.82;3.55;;;19.50;99.90;;;;;;6310123;22;20043;-74
2022/06/22 19:48:21;;;;;;;8.48;3.45;;;19.40;99.90;;;;;;6308968;22;20008;-73
2022/06/22 19:51:31;;;;;;;8.48;3.95;;;19.40;99.90;;;;;;6307765;22;20093;-81
2022/06/22 19:54:02;;;;;;;10.98;3.50;;;19.30;99.90;;;;;;6250626;22;20043;-81
2022/06/22 19:56:51;;;;;;;6.35;2.83;;;19.20;99.90;;;;;;6307599;22;20011;-83
2022/06/22 19:59:22;;;;;;;6.32;3.35;;;19.20;99.90;;;;;;6307839;22;20011;-81
2022/06/22 20:02:09;;;;;;;7.25;3.22;;;19.10;99.90;;;;;;6309272;22;20008;-80
2022/06/22 20:05:04;;;;;;;8.85;3.28;;;19.00;99.90;;;;;;6261322;22;20018;-82
2022/06/22 20:07:44;;;;;;;6.72;3.08;;;18.90;99.90;;;;;;6281806;22;20441;-83
2022/06/22 20:10:20;;;;;;;5.60;3.10;;;18.90;99.90;;;;;;6309071;22;20011;-81
2022/06/22 20:13:01;;;;;;;6.78;3.28;;;18.80;99.90;;;;;;6307483;22;20022;-82
2022/06/22 20:15:43;;;;;;;8.90;3.40;;;18.80;99.90;;;;;;6281731;22;20015;-83
2022/06/22 20:18:11;;;;;;;5.93;3.45;;;18.70;99.90;;;;;;6281857;22;20015;-81
2022/06/22 20:21:00;;;;;;;7.97;3.35;;;18.60;99.90;;;;;;6309097;22;20019;-80
2022/06/22 20:23:32;;;;;;;6.95;3.50;;;18.60;99.90;;;;;;6307724;22;20038;-80